sensor_id;sensor_type;location;lat;lon;timestamp;P1;durP1;ratioP1;P2;durP2;ratioP2
50128;SDS011;36026;45.478;9.224;2023-11-19T00:02:36;19.85;;;9.63;;
50128;SDS011;36026;45.478;9.224;2023-11-19T00:09:56;28.50;;;10.93;;
50128;SDS011;36026;45.478;9.224;2023-11-19T00:17:37;63.42;;;27.00;;
50128;SDS011;36026;45.478;9.224;2023-11-19T00:21:20;83.75;;;30.30;;
50128;SDS011;36026;45.478;9.224;2023-11-19T00:25:24;52.03;;;19.73;;
50128;SDS011;36026;45.478;9.224;2023-11-19T00:28:40;50.97;;;25.73;;
50128;SDS011;36026;45.478;9.224;2023-11-19T00:31:44;65.82;;;27.90;;
50128;SDS011;36026;45.478;9.224;2023-11-19T00:34:56;56.90;;;25.77;;
50128;SDS011;36026;45.478;9.224;2023-11-19T00:38:18;19.77;;;11.10;;
50128;SDS011;36026;45.478;9.224;2023-11-19T00:41:42;15.15;;;10.38;;
50128;SDS011;36026;45.478;9.224;2023-11-19T00:44:58;19.48;;;9.75;;
50128;SDS011;36026;45.478;9.224;2023-11-19T00:48:14;17.48;;;10.25;;
50128;SDS011;36026;45.478;9.224;2023-11-19T00:54:32;23.45;;;11.18;;
50128;SDS011;36026;45.478;9.224;2023-11-19T00:57:56;17.98;;;9.82;;
50128;SDS011;36026;45.478;9.224;2023-11-19T01:01:14;16.77;;;9.63;;
50128;SDS011;36026;45.478;9.224;2023-11-19T01:04:38;18.75;;;9.32;;
50128;SDS011;36026;45.478;9.224;2023-11-19T01:08:22;16.05;;;9.55;;
50128;SDS011;36026;45.478;9.224;2023-11-19T01:12:05;16.80;;;9.05;;
50128;SDS011;36026;45.478;9.224;2023-11-19T01:16:05;20.50;;;10.27;;
50128;SDS011;36026;45.478;9.224;2023-11-19T01:19:38;16.98;;;10.18;;
50128;SDS011;36026;45.478;9.224;2023-11-19T01:23:14;18.40;;;10.20;;
50128;SDS011;36026;45.478;9.224;2023-11-19T01:27:01;16.38;;;8.93;;
50128;SDS011;36026;45.478;9.224;2023-11-19T01:34:09;14.68;;;8.45;;
50128;SDS011;36026;45.478;9.224;2023-11-19T01:37:26;17.77;;;9.25;;
50128;SDS011;36026;45.478;9.224;2023-11-19T01:41:16;14.38;;;8.73;;
50128;SDS011;36026;45.478;9.224;2023-11-19T01:44:56;15.38;;;8.95;;
50128;SDS011;36026;45.478;9.224;2023-11-19T01:48:46;17.67;;;10.63;;
50128;SDS011;36026;45.478;9.224;2023-11-19T01:52:04;15.32;;;8.90;;
50128;SDS011;36026;45.478;9.224;2023-11-19T01:55:27;13.88;;;9.27;;
50128;SDS011;36026;45.478;9.224;2023-11-19T01:58:44;15.35;;;9.48;;
50128;SDS011;36026;45.478;9.224;2023-11-19T02:02:06;15.02;;;9.15;;
50128;SDS011;36026;45.478;9.224;2023-11-19T02:05:53;16.80;;;8.98;;
50128;SDS011;36026;45.478;9.224;2023-11-19T02:09:17;14.70;;;9.05;;
50128;SDS011;36026;45.478;9.224;2023-11-19T02:12:38;15.00;;;9.32;;
50128;SDS011;36026;45.478;9.224;2023-11-19T02:16:00;14.68;;;8.50;;
50128;SDS011;36026;45.478;9.224;2023-11-19T02:23:23;15.68;;;9.40;;
50128;SDS011;36026;45.478;9.224;2023-11-19T02:26:51;16.17;;;8.77;;
50128;SDS011;36026;45.478;9.224;2023-11-19T02:30:23;15.82;;;9.10;;
50128;SDS011;36026;45.478;9.224;2023-11-19T02:33:57;13.98;;;9.10;;
50128;SDS011;36026;45.478;9.224;2023-11-19T02:37:40;14.85;;;8.43;;
50128;SDS011;36026;45.478;9.224;2023-11-19T02:41:06;17.80;;;8.93;;
50128;SDS011;36026;45.478;9.224;2023-11-19T02:44:19;14.35;;;9.13;;
50128;SDS011;36026;45.478;9.224;2023-11-19T02:47:46;15.82;;;9.57;;
50128;SDS011;36026;45.478;9.224;2023-11-19T02:54:19;15.20;;;9.18;;
50128;SDS011;36026;45.478;9.224;2023-11-19T02:57:41;15.40;;;9.15;;
50128;SDS011;36026;45.478;9.224;2023-11-19T03:01:22;13.52;;;8.25;;
50128;SDS011;36026;45.478;9.224;2023-11-19T03:08:23;15.90;;;8.93;;
50128;SDS011;36026;45.478;9.224;2023-11-19T03:14:53;13.20;;;8.48;;
50128;SDS011;36026;45.478;9.224;2023-11-19T03:18:11;15.55;;;8.73;;
50128;SDS011;36026;45.478;9.224;2023-11-19T03:29:31;11.95;;;7.90;;
50128;SDS011;36026;45.478;9.224;2023-11-19T03:32:54;13.48;;;8.70;;
50128;SDS011;36026;45.478;9.224;2023-11-19T03:39:53;15.13;;;8.52;;
50128;SDS011;36026;45.478;9.224;2023-11-19T03:43:12;12.00;;;8.18;;
50128;SDS011;36026;45.478;9.224;2023-11-19T03:46:43;14.57;;;8.75;;
50128;SDS011;36026;45.478;9.224;2023-11-19T03:50:32;18.23;;;10.68;;
50128;SDS011;36026;45.478;9.224;2023-11-19T03:57:29;12.50;;;7.78;;
50128;SDS011;36026;45.478;9.224;2023-11-19T04:00:46;12.82;;;8.05;;
50128;SDS011;36026;45.478;9.224;2023-11-19T04:04:07;16.23;;;9.40;;
50128;SDS011;36026;45.478;9.224;2023-11-19T04:07:36;13.40;;;8.23;;
50128;SDS011;36026;45.478;9.224;2023-11-19T04:11:16;17.17;;;9.30;;
50128;SDS011;36026;45.478;9.224;2023-11-19T04:18:48;19.40;;;8.55;;
50128;SDS011;36026;45.478;9.224;2023-11-19T04:21:51;14.10;;;9.25;;
50128;SDS011;36026;45.478;9.224;2023-11-19T04:24:53;16.85;;;9.73;;
50128;SDS011;36026;45.478;9.224;2023-11-19T04:27:55;15.88;;;9.18;;
50128;SDS011;36026;45.478;9.224;2023-11-19T04:30:57;16.77;;;9.80;;
50128;SDS011;36026;45.478;9.224;2023-11-19T04:33:59;17.38;;;9.77;;
50128;SDS011;36026;45.478;9.224;2023-11-19T04:37:03;18.00;;;9.43;;
50128;SDS011;36026;45.478;9.224;2023-11-19T04:40:06;14.13;;;9.32;;
50128;SDS011;36026;45.478;9.224;2023-11-19T04:43:09;16.70;;;10.00;;
50128;SDS011;36026;45.478;9.224;2023-11-19T04:46:15;15.30;;;9.52;;
50128;SDS011;36026;45.478;9.224;2023-11-19T04:49:26;20.57;;;10.30;;
50128;SDS011;36026;45.478;9.224;2023-11-19T04:55:33;18.08;;;9.68;;
50128;SDS011;36026;45.478;9.224;2023-11-19T04:58:35;16.73;;;9.80;;
50128;SDS011;36026;45.478;9.224;2023-11-19T05:01:38;15.98;;;8.95;;
50128;SDS011;36026;45.478;9.224;2023-11-19T05:04:42;16.00;;;10.02;;
50128;SDS011;36026;45.478;9.224;2023-11-19T05:07:45;14.95;;;8.75;;
50128;SDS011;36026;45.478;9.224;2023-11-19T05:10:48;16.67;;;9.20;;
50128;SDS011;36026;45.478;9.224;2023-11-19T05:13:50;17.65;;;8.98;;
50128;SDS011;36026;45.478;9.224;2023-11-19T05:16:58;14.82;;;9.52;;
50128;SDS011;36026;45.478;9.224;2023-11-19T05:20:32;22.35;;;9.45;;
50128;SDS011;36026;45.478;9.224;2023-11-19T05:27:30;15.77;;;8.95;;
50128;SDS011;36026;45.478;9.224;2023-11-19T05:31:08;14.15;;;8.50;;
50128;SDS011;36026;45.478;9.224;2023-11-19T05:34:38;17.38;;;9.93;;
50128;SDS011;36026;45.478;9.224;2023-11-19T05:38:03;17.10;;;9.23;;
50128;SDS011;36026;45.478;9.224;2023-11-19T05:41:33;14.40;;;8.45;;
50128;SDS011;36026;45.478;9.224;2023-11-19T05:45:03;14.90;;;9.38;;
50128;SDS011;36026;45.478;9.224;2023-11-19T05:51:55;17.33;;;9.27;;
50128;SDS011;36026;45.478;9.224;2023-11-19T05:55:12;15.50;;;8.82;;
50128;SDS011;36026;45.478;9.224;2023-11-19T06:02:29;16.17;;;8.93;;
50128;SDS011;36026;45.478;9.224;2023-11-19T06:10:00;15.85;;;9.20;;
50128;SDS011;36026;45.478;9.224;2023-11-19T06:13:22;13.93;;;8.88;;
50128;SDS011;36026;45.478;9.224;2023-11-19T06:16:29;14.32;;;9.15;;
50128;SDS011;36026;45.478;9.224;2023-11-19T06:19:54;15.68;;;8.93;;
50128;SDS011;36026;45.478;9.224;2023-11-19T06:23:35;15.02;;;8.73;;
50128;SDS011;36026;45.478;9.224;2023-11-19T06:27:29;16.08;;;8.65;;
50128;SDS011;36026;45.478;9.224;2023-11-19T06:31:03;14.43;;;8.18;;
50128;SDS011;36026;45.478;9.224;2023-11-19T06:34:08;13.80;;;8.40;;
50128;SDS011;36026;45.478;9.224;2023-11-19T06:37:13;16.52;;;8.95;;
50128;SDS011;36026;45.478;9.224;2023-11-19T06:40:15;14.35;;;7.90;;
50128;SDS011;36026;45.478;9.224;2023-11-19T06:43:17;13.00;;;7.90;;
50128;SDS011;36026;45.478;9.224;2023-11-19T06:46:19;13.25;;;7.97;;
50128;SDS011;36026;45.478;9.224;2023-11-19T06:49:21;11.27;;;7.70;;
50128;SDS011;36026;45.478;9.224;2023-11-19T06:52:26;14.77;;;8.37;;
50128;SDS011;36026;45.478;9.224;2023-11-19T06:55:28;13.80;;;8.00;;
50128;SDS011;36026;45.478;9.224;2023-11-19T06:58:30;11.70;;;7.40;;
50128;SDS011;36026;45.478;9.224;2023-11-19T07:01:34;11.27;;;6.60;;
50128;SDS011;36026;45.478;9.224;2023-11-19T07:04:37;9.13;;;6.18;;
50128;SDS011;36026;45.478;9.224;2023-11-19T07:07:40;11.07;;;6.35;;
50128;SDS011;36026;45.478;9.224;2023-11-19T07:10:42;11.95;;;6.68;;
50128;SDS011;36026;45.478;9.224;2023-11-19T07:13:44;12.88;;;7.53;;
50128;SDS011;36026;45.478;9.224;2023-11-19T07:17:01;12.85;;;6.93;;
50128;SDS011;36026;45.478;9.224;2023-11-19T07:20:03;14.30;;;7.10;;
50128;SDS011;36026;45.478;9.224;2023-11-19T07:26:32;11.10;;;5.70;;
50128;SDS011;36026;45.478;9.224;2023-11-19T07:29:39;10.10;;;5.30;;
50128;SDS011;36026;45.478;9.224;2023-11-19T07:32:55;9.10;;;4.82;;
50128;SDS011;36026;45.478;9.224;2023-11-19T07:36:00;7.20;;;4.95;;
50128;SDS011;36026;45.478;9.224;2023-11-19T07:39:03;9.07;;;4.55;;
50128;SDS011;36026;45.478;9.224;2023-11-19T07:42:12;21.20;;;4.93;;
50128;SDS011;36026;45.478;9.224;2023-11-19T07:48:24;7.13;;;4.45;;
50128;SDS011;36026;45.478;9.224;2023-11-19T07:51:39;6.72;;;3.85;;
50128;SDS011;36026;45.478;9.224;2023-11-19T08:08:09;7.47;;;4.45;;
50128;SDS011;36026;45.478;9.224;2023-11-19T08:21:27;14.32;;;9.60;;
50128;SDS011;36026;45.478;9.224;2023-11-19T08:34:32;17.10;;;8.88;;
50128;SDS011;36026;45.478;9.224;2023-11-19T08:47:56;11.68;;;7.75;;
50128;SDS011;36026;45.478;9.224;2023-11-19T08:51:00;10.82;;;7.78;;
50128;SDS011;36026;45.478;9.224;2023-11-19T08:54:03;13.00;;;8.05;;
50128;SDS011;36026;45.478;9.224;2023-11-19T08:57:05;9.73;;;7.00;;
50128;SDS011;36026;45.478;9.224;2023-11-19T09:00:09;12.80;;;6.50;;
50128;SDS011;36026;45.478;9.224;2023-11-19T09:03:14;7.68;;;6.00;;
50128;SDS011;36026;45.478;9.224;2023-11-19T09:06:21;7.88;;;5.38;;
50128;SDS011;36026;45.478;9.224;2023-11-19T09:09:23;8.73;;;6.03;;
50128;SDS011;36026;45.478;9.224;2023-11-19T09:12:25;9.55;;;5.32;;
50128;SDS011;36026;45.478;9.224;2023-11-19T09:15:27;8.85;;;5.55;;
50128;SDS011;36026;45.478;9.224;2023-11-19T09:18:29;10.75;;;5.90;;
50128;SDS011;36026;45.478;9.224;2023-11-19T09:21:33;7.68;;;5.72;;
50128;SDS011;36026;45.478;9.224;2023-11-19T09:24:37;7.75;;;5.57;;
50128;SDS011;36026;45.478;9.224;2023-11-19T09:27:39;9.20;;;6.32;;
50128;SDS011;36026;45.478;9.224;2023-11-19T09:30:41;11.18;;;7.05;;
50128;SDS011;36026;45.478;9.224;2023-11-19T09:33:43;10.07;;;7.65;;
50128;SDS011;36026;45.478;9.224;2023-11-19T09:36:47;11.38;;;6.80;;
50128;SDS011;36026;45.478;9.224;2023-11-19T09:39:49;12.32;;;6.85;;
50128;SDS011;36026;45.478;9.224;2023-11-19T09:42:50;10.18;;;6.82;;
50128;SDS011;36026;45.478;9.224;2023-11-19T09:45:52;12.05;;;7.25;;
50128;SDS011;36026;45.478;9.224;2023-11-19T09:48:54;12.45;;;7.68;;
50128;SDS011;36026;45.478;9.224;2023-11-19T09:51:58;10.98;;;8.15;;
50128;SDS011;36026;45.478;9.224;2023-11-19T09:55:00;12.55;;;8.00;;
50128;SDS011;36026;45.478;9.224;2023-11-19T09:58:02;11.57;;;8.52;;
50128;SDS011;36026;45.478;9.224;2023-11-19T10:01:04;11.60;;;8.82;;
50128;SDS011;36026;45.478;9.224;2023-11-19T10:04:07;11.68;;;8.63;;
50128;SDS011;36026;45.478;9.224;2023-11-19T10:07:11;12.88;;;10.00;;
50128;SDS011;36026;45.478;9.224;2023-11-19T10:10:18;15.20;;;10.57;;
50128;SDS011;36026;45.478;9.224;2023-11-19T10:13:26;16.80;;;10.75;;
50128;SDS011;36026;45.478;9.224;2023-11-19T10:16:34;14.77;;;11.10;;
50128;SDS011;36026;45.478;9.224;2023-11-19T10:19:50;19.02;;;13.00;;
50128;SDS011;36026;45.478;9.224;2023-11-19T10:22:58;17.00;;;13.13;;
50128;SDS011;36026;45.478;9.224;2023-11-19T10:26:02;17.98;;;13.02;;
50128;SDS011;36026;45.478;9.224;2023-11-19T10:29:09;20.88;;;13.82;;
50128;SDS011;36026;45.478;9.224;2023-11-19T10:32:25;20.55;;;13.48;;
50128;SDS011;36026;45.478;9.224;2023-11-19T10:35:50;19.10;;;14.77;;
50128;SDS011;36026;45.478;9.224;2023-11-19T10:39:20;20.70;;;16.60;;
50128;SDS011;36026;45.478;9.224;2023-11-19T10:42:34;18.60;;;13.90;;
50128;SDS011;36026;45.478;9.224;2023-11-19T10:45:40;17.88;;;14.18;;
50128;SDS011;36026;45.478;9.224;2023-11-19T10:48:56;21.85;;;15.02;;
50128;SDS011;36026;45.478;9.224;2023-11-19T10:51:59;21.23;;;14.38;;
50128;SDS011;36026;45.478;9.224;2023-11-19T10:55:07;21.90;;;15.13;;
50128;SDS011;36026;45.478;9.224;2023-11-19T10:58:15;19.90;;;15.30;;
50128;SDS011;36026;45.478;9.224;2023-11-19T11:01:46;21.23;;;15.15;;
50128;SDS011;36026;45.478;9.224;2023-11-19T11:04:56;24.30;;;15.55;;
50128;SDS011;36026;45.478;9.224;2023-11-19T11:08:13;19.15;;;14.15;;
50128;SDS011;36026;45.478;9.224;2023-11-19T11:11:27;18.20;;;13.18;;
50128;SDS011;36026;45.478;9.224;2023-11-19T11:14:32;18.88;;;13.98;;
50128;SDS011;36026;45.478;9.224;2023-11-19T11:17:43;18.30;;;14.30;;
50128;SDS011;36026;45.478;9.224;2023-11-19T11:20:58;19.10;;;14.65;;
50128;SDS011;36026;45.478;9.224;2023-11-19T11:24:34;16.67;;;14.25;;
50128;SDS011;36026;45.478;9.224;2023-11-19T11:27:58;20.02;;;13.73;;
50128;SDS011;36026;45.478;9.224;2023-11-19T11:31:15;17.52;;;13.85;;
50128;SDS011;36026;45.478;9.224;2023-11-19T11:34:34;20.23;;;13.80;;
50128;SDS011;36026;45.478;9.224;2023-11-19T11:37:46;18.08;;;13.80;;
50128;SDS011;36026;45.478;9.224;2023-11-19T11:44:17;24.77;;;14.45;;
50128;SDS011;36026;45.478;9.224;2023-11-19T11:47:19;25.00;;;15.00;;
50128;SDS011;36026;45.478;9.224;2023-11-19T11:50:21;18.58;;;13.10;;
50128;SDS011;36026;45.478;9.224;2023-11-19T11:53:23;16.17;;;13.13;;
50128;SDS011;36026;45.478;9.224;2023-11-19T11:56:32;21.77;;;13.30;;
50128;SDS011;36026;45.478;9.224;2023-11-19T11:59:48;16.27;;;12.32;;
50128;SDS011;36026;45.478;9.224;2023-11-19T12:02:51;17.88;;;13.25;;
50128;SDS011;36026;45.478;9.224;2023-11-19T12:05:54;16.48;;;12.07;;
50128;SDS011;36026;45.478;9.224;2023-11-19T12:08:59;19.08;;;13.02;;
50128;SDS011;36026;45.478;9.224;2023-11-19T12:12:07;16.90;;;12.77;;
50128;SDS011;36026;45.478;9.224;2023-11-19T12:15:15;14.63;;;11.68;;
50128;SDS011;36026;45.478;9.224;2023-11-19T12:18:19;16.60;;;11.95;;
50128;SDS011;36026;45.478;9.224;2023-11-19T12:21:28;17.50;;;13.05;;
50128;SDS011;36026;45.478;9.224;2023-11-19T12:24:31;16.63;;;13.55;;
50128;SDS011;36026;45.478;9.224;2023-11-19T12:27:33;15.32;;;12.93;;
50128;SDS011;36026;45.478;9.224;2023-11-19T12:34:14;18.27;;;13.90;;
50128;SDS011;36026;45.478;9.224;2023-11-19T12:37:23;17.65;;;13.77;;
50128;SDS011;36026;45.478;9.224;2023-11-19T12:40:32;18.75;;;13.50;;
50128;SDS011;36026;45.478;9.224;2023-11-19T12:43:34;17.60;;;13.48;;
50128;SDS011;36026;45.478;9.224;2023-11-19T12:46:40;19.00;;;14.07;;
50128;SDS011;36026;45.478;9.224;2023-11-19T12:49:55;15.38;;;13.25;;
50128;SDS011;36026;45.478;9.224;2023-11-19T12:53:00;18.27;;;13.95;;
50128;SDS011;36026;45.478;9.224;2023-11-19T12:56:08;15.95;;;12.75;;
50128;SDS011;36026;45.478;9.224;2023-11-19T12:59:23;23.02;;;13.38;;
50128;SDS011;36026;45.478;9.224;2023-11-19T13:06:01;16.10;;;13.65;;
50128;SDS011;36026;45.478;9.224;2023-11-19T13:09:21;16.02;;;12.70;;
50128;SDS011;36026;45.478;9.224;2023-11-19T13:12:23;15.82;;;12.32;;
50128;SDS011;36026;45.478;9.224;2023-11-19T13:15:26;14.73;;;12.52;;
50128;SDS011;36026;45.478;9.224;2023-11-19T13:18:30;17.80;;;12.80;;
50128;SDS011;36026;45.478;9.224;2023-11-19T13:21:47;16.73;;;13.10;;
50128;SDS011;36026;45.478;9.224;2023-11-19T13:24:48;18.35;;;13.10;;
50128;SDS011;36026;45.478;9.224;2023-11-19T13:27:50;17.60;;;13.55;;
50128;SDS011;36026;45.478;9.224;2023-11-19T13:30:52;21.25;;;13.65;;
50128;SDS011;36026;45.478;9.224;2023-11-19T13:33:56;19.08;;;13.52;;
50128;SDS011;36026;45.478;9.224;2023-11-19T13:36:58;17.00;;;12.68;;
50128;SDS011;36026;45.478;9.224;2023-11-19T13:40:00;16.20;;;12.73;;
50128;SDS011;36026;45.478;9.224;2023-11-19T13:43:04;16.35;;;12.35;;
50128;SDS011;36026;45.478;9.224;2023-11-19T13:46:07;17.10;;;12.02;;
50128;SDS011;36026;45.478;9.224;2023-11-19T13:49:11;13.83;;;11.53;;
50128;SDS011;36026;45.478;9.224;2023-11-19T13:52:13;14.30;;;12.27;;
50128;SDS011;36026;45.478;9.224;2023-11-19T13:55:15;14.50;;;11.27;;
50128;SDS011;36026;45.478;9.224;2023-11-19T13:58:17;15.38;;;11.32;;
50128;SDS011;36026;45.478;9.224;2023-11-19T14:01:18;14.57;;;10.95;;
50128;SDS011;36026;45.478;9.224;2023-11-19T14:04:22;7.05;;;6.13;;
50128;SDS011;36026;45.478;9.224;2023-11-19T14:07:23;10.68;;;6.40;;
50128;SDS011;36026;45.478;9.224;2023-11-19T14:10:25;6.85;;;5.60;;
50128;SDS011;36026;45.478;9.224;2023-11-19T14:13:28;8.23;;;5.43;;
50128;SDS011;36026;45.478;9.224;2023-11-19T14:16:30;8.20;;;5.22;;
50128;SDS011;36026;45.478;9.224;2023-11-19T14:19:33;6.85;;;5.30;;
50128;SDS011;36026;45.478;9.224;2023-11-19T14:22:39;7.70;;;5.45;;
50128;SDS011;36026;45.478;9.224;2023-11-19T14:25:41;7.32;;;5.72;;
50128;SDS011;36026;45.478;9.224;2023-11-19T14:28:43;7.97;;;5.93;;
50128;SDS011;36026;45.478;9.224;2023-11-19T14:31:44;9.63;;;5.75;;
50128;SDS011;36026;45.478;9.224;2023-11-19T14:34:48;9.65;;;6.32;;
50128;SDS011;36026;45.478;9.224;2023-11-19T14:37:50;8.18;;;5.47;;
50128;SDS011;36026;45.478;9.224;2023-11-19T14:40:51;8.13;;;5.70;;
50128;SDS011;36026;45.478;9.224;2023-11-19T14:43:54;10.25;;;6.00;;
50128;SDS011;36026;45.478;9.224;2023-11-19T14:46:56;11.50;;;6.47;;
50128;SDS011;36026;45.478;9.224;2023-11-19T14:49:59;9.07;;;5.78;;
50128;SDS011;36026;45.478;9.224;2023-11-19T14:53:03;9.77;;;6.93;;
50128;SDS011;36026;45.478;9.224;2023-11-19T14:56:05;8.93;;;7.30;;
50128;SDS011;36026;45.478;9.224;2023-11-19T14:59:07;15.70;;;6.95;;
50128;SDS011;36026;45.478;9.224;2023-11-19T15:02:09;11.90;;;8.48;;
50128;SDS011;36026;45.478;9.224;2023-11-19T15:05:12;13.80;;;8.30;;
50128;SDS011;36026;45.478;9.224;2023-11-19T15:08:13;12.23;;;8.05;;
50128;SDS011;36026;45.478;9.224;2023-11-19T15:11:16;12.80;;;7.90;;
50128;SDS011;36026;45.478;9.224;2023-11-19T15:14:18;12.65;;;7.68;;
50128;SDS011;36026;45.478;9.224;2023-11-19T15:17:20;11.10;;;7.75;;
50128;SDS011;36026;45.478;9.224;2023-11-19T15:20:23;12.45;;;8.32;;
50128;SDS011;36026;45.478;9.224;2023-11-19T15:23:26;10.55;;;7.95;;
50128;SDS011;36026;45.478;9.224;2023-11-19T15:26:29;13.68;;;8.13;;
50128;SDS011;36026;45.478;9.224;2023-11-19T15:29:31;10.25;;;8.27;;
50128;SDS011;36026;45.478;9.224;2023-11-19T15:32:34;12.82;;;9.07;;
50128;SDS011;36026;45.478;9.224;2023-11-19T15:35:37;11.00;;;7.85;;
50128;SDS011;36026;45.478;9.224;2023-11-19T15:38:40;12.88;;;9.35;;
50128;SDS011;36026;45.478;9.224;2023-11-19T15:41:42;17.77;;;11.90;;
50128;SDS011;36026;45.478;9.224;2023-11-19T15:44:44;20.70;;;13.82;;
50128;SDS011;36026;45.478;9.224;2023-11-19T15:47:49;75.80;;;38.03;;
50128;SDS011;36026;45.478;9.224;2023-11-19T15:50:52;266.25;;;119.65;;
50128;SDS011;36026;45.478;9.224;2023-11-19T15:53:54;127.65;;;63.55;;
50128;SDS011;36026;45.478;9.224;2023-11-19T15:56:56;25.13;;;16.85;;
50128;SDS011;36026;45.478;9.224;2023-11-19T15:59:58;20.38;;;14.07;;
50128;SDS011;36026;45.478;9.224;2023-11-19T16:02:59;17.30;;;12.95;;
50128;SDS011;36026;45.478;9.224;2023-11-19T16:06:04;19.90;;;13.63;;
50128;SDS011;36026;45.478;9.224;2023-11-19T16:09:07;19.20;;;14.25;;
50128;SDS011;36026;45.478;9.224;2023-11-19T16:12:12;16.23;;;12.93;;
50128;SDS011;36026;45.478;9.224;2023-11-19T16:15:14;18.58;;;13.48;;
50128;SDS011;36026;45.478;9.224;2023-11-19T16:18:16;17.83;;;13.25;;
50128;SDS011;36026;45.478;9.224;2023-11-19T16:21:19;18.17;;;13.43;;
50128;SDS011;36026;45.478;9.224;2023-11-19T16:24:21;20.17;;;14.50;;
50128;SDS011;36026;45.478;9.224;2023-11-19T16:27:23;18.23;;;13.68;;
50128;SDS011;36026;45.478;9.224;2023-11-19T16:30:25;19.20;;;13.80;;
50128;SDS011;36026;45.478;9.224;2023-11-19T16:33:29;19.20;;;14.13;;
50128;SDS011;36026;45.478;9.224;2023-11-19T16:36:44;17.92;;;13.95;;
50128;SDS011;36026;45.478;9.224;2023-11-19T16:42:49;18.70;;;13.95;;
50128;SDS011;36026;45.478;9.224;2023-11-19T16:45:51;20.45;;;14.23;;
50128;SDS011;36026;45.478;9.224;2023-11-19T16:48:54;20.10;;;13.93;;
50128;SDS011;36026;45.478;9.224;2023-11-19T16:52:00;18.95;;;13.90;;
50128;SDS011;36026;45.478;9.224;2023-11-19T16:55:04;21.50;;;14.10;;
50128;SDS011;36026;45.478;9.224;2023-11-19T16:58:11;18.42;;;14.15;;
50128;SDS011;36026;45.478;9.224;2023-11-19T17:01:14;21.77;;;14.35;;
50128;SDS011;36026;45.478;9.224;2023-11-19T17:04:16;18.70;;;13.88;;
50128;SDS011;36026;45.478;9.224;2023-11-19T17:10:25;23.15;;;13.85;;
50128;SDS011;36026;45.478;9.224;2023-11-19T17:13:27;21.10;;;13.88;;
50128;SDS011;36026;45.478;9.224;2023-11-19T17:16:29;20.77;;;15.18;;
50128;SDS011;36026;45.478;9.224;2023-11-19T17:19:30;19.58;;;14.38;;
50128;SDS011;36026;45.478;9.224;2023-11-19T17:22:34;18.13;;;13.35;;
50128;SDS011;36026;45.478;9.224;2023-11-19T17:28:38;18.50;;;13.60;;
50128;SDS011;36026;45.478;9.224;2023-11-19T17:31:41;18.60;;;14.15;;
50128;SDS011;36026;45.478;9.224;2023-11-19T17:34:44;18.45;;;13.48;;
50128;SDS011;36026;45.478;9.224;2023-11-19T17:37:57;20.60;;;14.48;;
50128;SDS011;36026;45.478;9.224;2023-11-19T17:41:02;19.65;;;14.48;;
50128;SDS011;36026;45.478;9.224;2023-11-19T17:44:12;17.95;;;14.27;;
50128;SDS011;36026;45.478;9.224;2023-11-19T17:47:18;17.08;;;13.32;;
50128;SDS011;36026;45.478;9.224;2023-11-19T17:50:21;19.48;;;13.90;;
50128;SDS011;36026;45.478;9.224;2023-11-19T17:56:32;18.73;;;14.30;;
50128;SDS011;36026;45.478;9.224;2023-11-19T17:59:34;19.77;;;14.35;;
50128;SDS011;36026;45.478;9.224;2023-11-19T18:02:47;19.25;;;14.25;;
50128;SDS011;36026;45.478;9.224;2023-11-19T18:05:52;20.60;;;13.30;;
50128;SDS011;36026;45.478;9.224;2023-11-19T18:08:58;19.75;;;14.30;;
50128;SDS011;36026;45.478;9.224;2023-11-19T18:12:01;19.08;;;14.40;;
50128;SDS011;36026;45.478;9.224;2023-11-19T18:15:07;21.40;;;14.75;;
50128;SDS011;36026;45.478;9.224;2023-11-19T18:18:16;19.67;;;14.38;;
50128;SDS011;36026;45.478;9.224;2023-11-19T18:21:27;20.70;;;14.63;;
50128;SDS011;36026;45.478;9.224;2023-11-19T18:24:31;24.77;;;15.27;;
50128;SDS011;36026;45.478;9.224;2023-11-19T18:27:37;20.35;;;14.73;;
50128;SDS011;36026;45.478;9.224;2023-11-19T18:33:46;20.27;;;14.18;;
50128;SDS011;36026;45.478;9.224;2023-11-19T18:39:55;20.73;;;13.70;;
50128;SDS011;36026;45.478;9.224;2023-11-19T18:43:11;20.60;;;13.77;;
50128;SDS011;36026;45.478;9.224;2023-11-19T18:46:13;23.00;;;13.95;;
50128;SDS011;36026;45.478;9.224;2023-11-19T18:49:17;23.15;;;15.00;;
50128;SDS011;36026;45.478;9.224;2023-11-19T18:52:23;18.77;;;14.32;;
50128;SDS011;36026;45.478;9.224;2023-11-19T18:55:29;21.07;;;14.00;;
50128;SDS011;36026;45.478;9.224;2023-11-19T18:58:32;19.63;;;13.25;;
50128;SDS011;36026;45.478;9.224;2023-11-19T19:01:35;20.02;;;12.73;;
50128;SDS011;36026;45.478;9.224;2023-11-19T19:04:38;20.03;;;12.73;;
50128;SDS011;36026;45.478;9.224;2023-11-19T19:07:40;18.02;;;12.70;;
50128;SDS011;36026;45.478;9.224;2023-11-19T19:10:47;20.48;;;11.82;;
50128;SDS011;36026;45.478;9.224;2023-11-19T19:14:04;18.05;;;11.80;;
50128;SDS011;36026;45.478;9.224;2023-11-19T19:17:10;18.60;;;11.27;;
50128;SDS011;36026;45.478;9.224;2023-11-19T19:20:18;16.98;;;10.93;;
50128;SDS011;36026;45.478;9.224;2023-11-19T19:23:24;17.58;;;11.00;;
50128;SDS011;36026;45.478;9.224;2023-11-19T19:26:32;16.42;;;10.50;;
50128;SDS011;36026;45.478;9.224;2023-11-19T19:29:35;21.17;;;11.68;;
50128;SDS011;36026;45.478;9.224;2023-11-19T19:32:41;15.10;;;10.95;;
50128;SDS011;36026;45.478;9.224;2023-11-19T19:35:59;16.52;;;10.02;;
50128;SDS011;36026;45.478;9.224;2023-11-19T19:39:16;15.10;;;9.90;;
50128;SDS011;36026;45.478;9.224;2023-11-19T19:42:20;15.98;;;10.10;;
50128;SDS011;36026;45.478;9.224;2023-11-19T19:45:25;15.32;;;9.55;;
50128;SDS011;36026;45.478;9.224;2023-11-19T19:48:27;15.70;;;10.07;;
50128;SDS011;36026;45.478;9.224;2023-11-19T19:51:29;16.13;;;9.90;;
50128;SDS011;36026;45.478;9.224;2023-11-19T19:54:31;14.05;;;9.68;;
50128;SDS011;36026;45.478;9.224;2023-11-19T19:57:36;14.90;;;10.00;;
50128;SDS011;36026;45.478;9.224;2023-11-19T20:00:38;14.82;;;9.65;;
50128;SDS011;36026;45.478;9.224;2023-11-19T20:03:40;15.40;;;9.48;;
50128;SDS011;36026;45.478;9.224;2023-11-19T20:06:43;14.38;;;8.82;;
50128;SDS011;36026;45.478;9.224;2023-11-19T20:09:49;18.13;;;9.30;;
50128;SDS011;36026;45.478;9.224;2023-11-19T20:12:56;12.98;;;9.35;;
50128;SDS011;36026;45.478;9.224;2023-11-19T20:16:11;14.77;;;10.07;;
50128;SDS011;36026;45.478;9.224;2023-11-19T20:19:17;16.95;;;11.10;;
50128;SDS011;36026;45.478;9.224;2023-11-19T20:22:21;15.40;;;10.32;;
50128;SDS011;36026;45.478;9.224;2023-11-19T20:25:25;18.50;;;11.65;;
50128;SDS011;36026;45.478;9.224;2023-11-19T20:28:33;25.30;;;14.43;;
50128;SDS011;36026;45.478;9.224;2023-11-19T20:31:39;23.88;;;13.73;;
50128;SDS011;36026;45.478;9.224;2023-11-19T20:34:43;26.02;;;14.95;;
50128;SDS011;36026;45.478;9.224;2023-11-19T20:37:46;30.40;;;16.33;;
50128;SDS011;36026;45.478;9.224;2023-11-19T20:40:50;26.00;;;15.90;;
50128;SDS011;36026;45.478;9.224;2023-11-19T20:43:57;29.98;;;14.65;;
50128;SDS011;36026;45.478;9.224;2023-11-19T20:47:01;27.23;;;14.73;;
50128;SDS011;36026;45.478;9.224;2023-11-19T20:50:05;23.37;;;13.60;;
50128;SDS011;36026;45.478;9.224;2023-11-19T20:53:12;25.00;;;14.55;;
50128;SDS011;36026;45.478;9.224;2023-11-19T20:56:18;24.92;;;13.73;;
50128;SDS011;36026;45.478;9.224;2023-11-19T20:59:27;23.17;;;13.52;;
50128;SDS011;36026;45.478;9.224;2023-11-19T21:02:44;20.98;;;12.73;;
50128;SDS011;36026;45.478;9.224;2023-11-19T21:05:48;23.80;;;12.68;;
50128;SDS011;36026;45.478;9.224;2023-11-19T21:08:54;17.83;;;11.32;;